createdAt,value
2019-03-29T00:05:39.663Z,84.94
2019-03-29T00:11:38.810Z,84.96
2019-03-29T00:14:09.410Z,85.05
2019-03-29T00:16:41.165Z,85.01
2019-03-29T00:19:13.950Z,85.03
2019-03-29T00:21:44.863Z,85.03
2019-03-29T00:28:07.496Z,85.12
2019-03-29T00:34:30.190Z,85.08
2019-03-29T00:36:59.769Z,85.18
2019-03-29T00:39:30.046Z,85.09
2019-03-29T00:42:02.581Z,85.13
2019-03-29T00:48:01.224Z,85.14
2019-03-29T00:54:54.839Z,85.18
2019-03-29T01:00:53.798Z,85.19
2019-03-29T01:03:23.880Z,85.26
2019-03-29T01:05:53.405Z,85.23
2019-03-29T01:08:22.925Z,85.18
2019-03-29T01:10:53.699Z,85.17
2019-03-29T01:13:24.228Z,85.20
2019-03-29T01:15:54.780Z,85.29
2019-03-29T01:18:24.690Z,85.34
2019-03-29T01:21:00.136Z,85.32
2019-03-29T01:26:58.843Z,85.40
2019-03-29T01:32:59.021Z,85.48
2019-03-29T01:35:28.720Z,85.51
2019-03-29T01:37:58.709Z,85.45
2019-03-29T01:41:10.568Z,85.41
2019-03-29T01:47:30.315Z,85.40
2019-03-29T01:54:22.301Z,85.43
2019-03-29T02:04:05.805Z,85.53
2019-03-29T02:10:17.982Z,85.30
2019-03-29T02:19:21.474Z,85.42
2019-03-29T02:21:50.856Z,85.38
2019-03-29T02:24:23.272Z,85.30
2019-03-29T03:07:56.056Z,85.25
2019-03-29T03:46:46.647Z,85.39
2019-03-29T03:57:25.632Z,85.42
2019-03-29T04:07:57.395Z,85.33
2019-03-29T04:11:43.214Z,85.49
2019-03-29T04:14:03.991Z,85.46
2019-03-29T04:24:20.240Z,85.44
2019-03-29T05:53:55.140Z,85.25
2019-03-29T05:57:03.496Z,85.12
2019-03-29T06:00:24.479Z,85.04
2019-03-29T06:03:33.971Z,85.07
2019-03-29T06:26:53.780Z,84.97
2019-03-29T06:29:35.056Z,84.94
2019-03-29T06:43:47.648Z,84.84
2019-03-29T06:46:17.282Z,84.71
2019-03-29T06:49:41.807Z,84.40
2019-03-29T06:52:14.256Z,83.81
2019-03-29T06:54:54.915Z,82.88
2019-03-29T06:58:49.277Z,82.62
2019-03-29T07:05:10.624Z,81.67
2019-03-29T07:07:40.545Z,81.07
2019-03-29T07:10:11.560Z,81.19
2019-03-29T07:12:41.171Z,80.72
2019-03-29T07:15:11.470Z,80.73
2019-03-29T07:17:41.021Z,80.33
2019-03-29T07:20:10.501Z,79.62
2019-03-29T07:22:40.143Z,79.72
2019-03-29T07:25:10.942Z,79.83
2019-03-29T07:27:46.780Z,79.10
2019-03-29T07:30:12.106Z,78.61
2019-03-29T07:32:42.020Z,78.30
2019-03-29T07:35:11.882Z,77.90
2019-03-29T07:37:41.497Z,76.86
2019-03-29T07:40:14.050Z,76.67
2019-03-29T07:42:50.786Z,76.19
2019-03-29T07:45:20.389Z,75.39
2019-03-29T07:47:54.611Z,75.40
2019-03-29T07:50:28.939Z,75.57
2019-03-29T07:52:58.454Z,74.67
2019-03-29T07:55:27.988Z,75.11
2019-03-29T07:57:57.815Z,72.85
2019-03-29T08:00:27.303Z,73.02
2019-03-29T08:02:56.880Z,72.59
2019-03-29T08:05:26.180Z,70.42
2019-03-29T08:07:55.893Z,71.03
2019-03-29T08:10:30.842Z,72.64
2019-03-29T08:12:56.665Z,72.35
2019-03-29T08:15:25.932Z,71.50
2019-03-29T08:17:55.310Z,71.22
2019-03-29T08:20:40.258Z,71.00
2019-03-29T08:22:56.083Z,70.26
2019-03-29T08:25:25.421Z,70.11
2019-03-29T08:27:54.940Z,68.40
2019-03-29T08:30:24.448Z,69.43
2019-03-29T08:32:53.987Z,69.25
2019-03-29T08:35:23.680Z,67.30
2019-03-29T08:37:53.078Z,67.24
2019-03-29T08:40:22.806Z,69.11
2019-03-29T08:42:52.371Z,69.34
2019-03-29T08:45:21.715Z,69.60
2019-03-29T08:47:51.015Z,70.07
2019-03-29T08:50:20.278Z,67.28
2019-03-29T08:52:49.781Z,70.91
2019-03-29T08:55:19.328Z,71.19
2019-03-29T08:57:51.932Z,70.29
2019-03-29T09:00:32.027Z,71.58
2019-03-29T09:03:01.857Z,71.03
2019-03-29T09:05:31.266Z,71.52
2019-03-29T09:08:01.585Z,71.76
2019-03-29T09:10:31.331Z,71.70
2019-03-29T09:13:04.220Z,70.90
2019-03-29T09:15:32.504Z,70.23
2019-03-29T09:18:02.019Z,71.36
2019-03-29T09:20:34.507Z,71.06
2019-03-29T09:23:02.971Z,70.43
2019-03-29T09:25:32.938Z,70.82
2019-03-29T09:28:02.255Z,70.51
2019-03-29T09:30:31.636Z,70.04
2019-03-29T09:33:01.042Z,70.39
2019-03-29T09:35:30.732Z,70.09
2019-03-29T09:38:00.050Z,70.16
2019-03-29T09:40:29.573Z,69.44
2019-03-29T09:43:07.259Z,69.65
2019-03-29T09:45:30.127Z,69.60
2019-03-29T09:47:59.723Z,67.26
2019-03-29T09:50:29.359Z,69.13
2019-03-29T09:53:01.143Z,68.54
2019-03-29T09:55:30.746Z,67.84
2019-03-29T09:58:02.438Z,68.16
2019-03-29T10:00:32.026Z,68.58
2019-03-29T10:03:01.371Z,67.95
2019-03-29T10:05:31.735Z,68.51
2019-03-29T10:08:02.087Z,68.53
2019-03-29T10:10:34.358Z,68.09
2019-03-29T10:13:03.322Z,67.56
2019-03-29T10:15:32.613Z,67.55
2019-03-29T10:18:02.027Z,66.99
2019-03-29T10:20:31.745Z,66.94
2019-03-29T10:23:01.003Z,67.13
2019-03-29T10:25:30.533Z,66.94
2019-03-29T10:28:01.008Z,66.20
2019-03-29T10:30:38.851Z,64.19
2019-03-29T10:33:08.430Z,62.34
2019-03-29T10:35:50.894Z,61.50
2019-03-29T10:38:09.308Z,60.79
2019-03-29T10:40:38.660Z,61.36
2019-03-29T10:43:08.082Z,61.71
2019-03-29T10:45:40.280Z,62.25
2019-03-29T10:48:09.633Z,61.24
2019-03-29T10:50:40.601Z,60.78
2019-03-29T10:53:10.246Z,60.22
2019-03-29T10:55:39.524Z,61.42
2019-03-29T10:58:09.827Z,61.59
2019-03-29T11:00:40.939Z,62.50
2019-03-29T11:03:10.399Z,63.20
2019-03-29T11:05:39.734Z,63.63
2019-03-29T11:08:11.619Z,62.12
2019-03-29T11:10:40.734Z,63.05
2019-03-29T11:13:13.675Z,62.99
2019-03-29T11:15:41.847Z,62.39
2019-03-29T11:18:11.450Z,61.37
2019-03-29T11:20:41.279Z,62.66
2019-03-29T11:23:10.631Z,62.93
2019-03-29T11:25:40.245Z,62.92
2019-03-29T11:28:09.940Z,61.74
2019-03-29T11:30:42.414Z,60.89
2019-03-29T11:33:10.313Z,60.88
2019-03-29T11:35:39.826Z,60.62
2019-03-29T11:38:10.584Z,60.85
2019-03-29T11:40:39.890Z,60.17
2019-03-29T11:43:09.249Z,60.66
2019-03-29T11:45:38.857Z,60.99
2019-03-29T11:48:09.579Z,62.32
2019-03-29T11:50:39.456Z,62.33
2019-03-29T11:53:09.016Z,63.15
2019-03-29T11:55:39.360Z,62.75
2019-03-29T11:58:08.939Z,62.18
2019-03-29T12:00:39.575Z,61.59
2019-03-29T12:03:09.866Z,62.22
2019-03-29T12:05:39.368Z,62.71
2019-03-29T12:08:09.077Z,62.89
2019-03-29T12:10:38.715Z,62.86
2019-03-29T12:13:09.714Z,63.08
2019-03-29T12:15:39.353Z,63.97
2019-03-29T12:18:08.982Z,63.29
2019-03-29T12:20:38.862Z,63.32
2019-03-29T12:23:08.567Z,62.97
2019-03-29T12:25:38.029Z,62.76
2019-03-29T12:28:08.551Z,62.18
2019-03-29T12:30:39.349Z,61.15
2019-03-29T12:33:08.870Z,61.97
2019-03-29T12:35:38.388Z,61.82
2019-03-29T12:38:09.872Z,61.40
2019-03-29T12:40:39.368Z,61.51
2019-03-29T12:43:12.283Z,61.05
2019-03-29T12:45:40.148Z,61.26
2019-03-29T12:48:09.395Z,60.70
2019-03-29T12:50:38.972Z,60.44
2019-03-29T12:53:08.485Z,61.10
2019-03-29T12:55:38.099Z,61.00
2019-03-29T12:58:07.673Z,61.15
2019-03-29T13:00:38.832Z,61.24
2019-03-29T13:03:08.544Z,61.41
2019-03-29T13:05:37.837Z,61.22
2019-03-29T13:08:07.370Z,61.24
2019-03-29T13:10:36.760Z,60.99
2019-03-29T13:13:06.451Z,61.12
2019-03-29T13:15:36.767Z,60.88
2019-03-29T13:18:06.584Z,60.98
2019-03-29T13:20:36.649Z,61.08
2019-03-29T13:23:13.570Z,60.84
2019-03-29T13:25:41.679Z,60.82
2019-03-29T13:28:10.947Z,60.58
2019-03-29T13:30:40.532Z,60.85
2019-03-29T13:33:10.662Z,61.06
2019-03-29T13:35:40.151Z,61.04
2019-03-29T13:38:09.676Z,61.00
2019-03-29T13:40:39.235Z,60.62
2019-03-29T13:43:08.864Z,60.68
2019-03-29T13:45:40.955Z,60.57
2019-03-29T13:48:10.632Z,61.05
2019-03-29T13:50:42.644Z,61.03
2019-03-29T13:53:12.268Z,60.99
2019-03-29T13:55:41.528Z,61.11
2019-03-29T13:58:11.115Z,61.14
2019-03-29T14:00:40.614Z,61.13
2019-03-29T14:03:10.145Z,61.20
2019-03-29T14:05:39.671Z,61.11
2019-03-29T14:08:09.176Z,61.37
2019-03-29T14:10:40.014Z,61.45
2019-03-29T14:13:09.494Z,61.30
2019-03-29T14:15:38.800Z,61.48
2019-03-29T14:18:08.332Z,61.35
2019-03-29T14:20:37.981Z,61.32
2019-03-29T14:23:07.510Z,61.39
2019-03-29T14:25:46.306Z,61.29
2019-03-29T14:28:15.652Z,61.48
2019-03-29T14:30:45.209Z,61.34
2019-03-29T14:33:14.503Z,61.28
2019-03-29T14:35:43.847Z,61.42
2019-03-29T14:38:13.515Z,61.15
2019-03-29T14:40:43.063Z,61.34
2019-03-29T14:43:12.543Z,61.39
2019-03-29T14:45:44.706Z,61.35
2019-03-29T14:48:14.245Z,61.54
2019-03-29T14:50:43.814Z,61.43
2019-03-29T14:53:13.388Z,60.88
2019-03-29T14:55:42.928Z,61.75
2019-03-29T14:58:12.245Z,61.56
2019-03-29T15:00:43.607Z,61.59
2019-03-29T15:03:16.454Z,61.67
2019-03-29T15:05:47.731Z,61.89
2019-03-29T15:08:20.328Z,61.80
2019-03-29T15:10:49.642Z,61.46
2019-03-29T15:13:20.764Z,61.70
2019-03-29T15:15:53.379Z,61.67
2019-03-29T15:18:21.312Z,61.78
2019-03-29T15:20:53.777Z,61.87
2019-03-29T15:23:22.051Z,61.70
2019-03-29T15:25:52.487Z,61.71
2019-03-29T15:28:21.988Z,61.83
2019-03-29T15:30:52.551Z,62.01
2019-03-29T15:33:22.189Z,61.84
2019-03-29T15:35:51.727Z,62.03
2019-03-29T15:38:21.082Z,62.12
2019-03-29T15:40:50.561Z,62.33
2019-03-29T15:43:20.630Z,62.23
2019-03-29T15:45:50.200Z,62.30
2019-03-29T15:48:19.463Z,62.31
2019-03-29T15:50:49.143Z,62.35
2019-03-29T15:53:18.681Z,62.36
2019-03-29T15:55:47.948Z,62.36
2019-03-29T15:58:26.280Z,62.31
2019-03-29T16:00:55.789Z,62.47
2019-03-29T16:03:25.144Z,62.31
2019-03-29T16:05:56.333Z,62.44
2019-03-29T16:08:25.856Z,62.36
2019-03-29T16:10:58.195Z,62.38
2019-03-29T16:13:27.814Z,62.73
2019-03-29T16:16:00.139Z,62.92
2019-03-29T16:18:29.651Z,62.84
2019-03-29T16:20:59.194Z,63.02
2019-03-29T16:23:28.814Z,63.17
2019-03-29T16:25:58.612Z,63.27
2019-03-29T16:28:28.401Z,63.27
2019-03-29T16:30:58.085Z,63.35
2019-03-29T16:33:27.591Z,63.45
2019-03-29T16:35:56.881Z,63.63
2019-03-29T16:38:26.427Z,63.74
2019-03-29T16:40:56.051Z,63.92
2019-03-29T16:43:26.164Z,63.97
2019-03-29T16:45:55.462Z,64.02
2019-03-29T16:48:24.719Z,64.06
2019-03-29T16:50:54.267Z,64.09
2019-03-29T16:53:26.586Z,64.28
2019-03-29T16:55:58.147Z,64.40
2019-03-29T16:58:28.063Z,64.71
2019-03-29T17:00:57.930Z,64.93
2019-03-29T17:03:35.488Z,64.71
2019-03-29T17:06:02.445Z,64.86
2019-03-29T17:08:35.975Z,65.27
2019-03-29T17:11:06.351Z,65.05
2019-03-29T17:13:35.868Z,65.38
2019-03-29T17:16:06.866Z,65.31
2019-03-29T17:18:47.888Z,65.41
2019-03-29T17:21:17.476Z,65.82
2019-03-29T17:23:47.123Z,65.96
2019-03-29T17:26:16.766Z,65.97
2019-03-29T17:28:46.315Z,66.30
2019-03-29T17:31:16.778Z,66.30
2019-03-29T17:33:47.947Z,66.70
2019-03-29T17:36:17.256Z,66.83
2019-03-29T17:38:47.091Z,66.91
2019-03-29T17:41:16.612Z,67.37
2019-03-29T17:43:46.202Z,67.61
2019-03-29T17:46:17.131Z,68.28
2019-03-29T17:48:46.494Z,68.45
2019-03-29T17:51:16.016Z,68.76
2019-03-29T17:53:45.708Z,69.07
2019-03-29T17:56:15.190Z,69.52
2019-03-29T17:58:44.852Z,69.58
2019-03-29T18:01:14.425Z,69.84
2019-03-29T18:03:43.806Z,70.00
2019-03-29T18:06:13.607Z,70.31
2019-03-29T18:08:43.425Z,70.38
2019-03-29T18:11:13.699Z,70.67
2019-03-29T18:13:46.143Z,70.86
2019-03-29T18:16:29.586Z,70.90
2019-03-29T18:18:47.182Z,70.98
2019-03-29T18:21:16.646Z,71.27
2019-03-29T18:23:46.183Z,71.38
2019-03-29T18:26:18.312Z,71.54
2019-03-29T18:28:53.197Z,71.59
2019-03-29T18:31:23.353Z,71.80
2019-03-29T18:33:55.752Z,72.07
2019-03-29T18:36:25.143Z,72.33
2019-03-29T18:38:58.925Z,72.35
2019-03-29T18:41:34.131Z,72.46
2019-03-29T18:44:03.782Z,72.67
2019-03-29T18:46:44.068Z,72.72
2019-03-29T18:49:05.494Z,72.83
2019-03-29T18:51:37.885Z,72.87
2019-03-29T18:54:10.309Z,72.93
2019-03-29T18:56:39.611Z,73.21
2019-03-29T18:59:09.303Z,73.00
2019-03-29T19:01:47.001Z,73.16
2019-03-29T19:04:30.526Z,73.40
2019-03-29T19:07:05.323Z,73.62
2019-03-29T19:09:44.452Z,73.54
2019-03-29T19:12:26.858Z,73.62
2019-03-29T19:15:28.772Z,73.93
2019-03-29T19:18:07.308Z,73.95
2019-03-29T19:20:43.886Z,74.08
2019-03-29T19:23:13.625Z,74.09
2019-03-29T19:25:44.220Z,74.31
2019-03-29T19:28:13.765Z,74.19
2019-03-29T19:30:43.364Z,74.54
2019-03-29T19:33:12.972Z,74.61
2019-03-29T19:35:42.619Z,74.70
2019-03-29T19:38:12.331Z,74.60
2019-03-29T19:40:48.654Z,74.73
2019-03-29T19:43:29.038Z,75.08
2019-03-29T19:45:56.789Z,74.99
2019-03-29T19:48:26.446Z,75.00
2019-03-29T19:50:56.186Z,75.05
2019-03-29T19:53:25.795Z,75.33
2019-03-29T19:55:55.371Z,75.41
2019-03-29T19:58:24.929Z,75.48
2019-03-29T20:00:54.691Z,75.60
2019-03-29T20:03:24.219Z,75.66
2019-03-29T20:05:53.870Z,75.84
2019-03-29T20:08:23.567Z,75.88
2019-03-29T20:10:54.809Z,75.99
2019-03-29T20:13:24.315Z,76.12
2019-03-29T20:15:53.824Z,76.24
2019-03-29T20:18:23.422Z,76.34
2019-03-29T20:20:55.046Z,76.42
2019-03-29T20:23:25.264Z,76.38
2019-03-29T20:25:54.876Z,76.51
2019-03-29T20:28:24.381Z,76.67
2019-03-29T20:30:55.228Z,76.94
2019-03-29T20:33:24.558Z,77.14
2019-03-29T20:35:54.643Z,77.17
2019-03-29T20:38:24.195Z,77.10
2019-03-29T20:40:55.765Z,77.29
2019-03-29T20:43:27.366Z,77.25
2019-03-29T20:45:56.677Z,77.41
2019-03-29T20:48:26.466Z,77.39
2019-03-29T20:50:59.518Z,77.43
2019-03-29T20:53:28.899Z,77.58
2019-03-29T20:55:58.578Z,77.64
2019-03-29T20:58:28.246Z,77.80
2019-03-29T21:00:57.845Z,77.86
2019-03-29T21:03:27.407Z,78.04
2019-03-29T21:05:57.044Z,78.00
2019-03-29T21:08:26.878Z,78.20
2019-03-29T21:10:58.827Z,78.02
2019-03-29T21:13:28.357Z,78.20
2019-03-29T21:15:57.886Z,78.42
2019-03-29T21:18:27.383Z,78.54
2019-03-29T21:20:57.074Z,78.59
2019-03-29T21:23:26.672Z,78.53
2019-03-29T21:25:56.058Z,78.65
2019-03-29T21:28:25.584Z,78.67
2019-03-29T21:30:56.909Z,78.67
2019-03-29T21:33:26.434Z,78.80
2019-03-29T21:35:55.921Z,78.71
2019-03-29T21:38:25.410Z,78.69
2019-03-29T21:40:54.674Z,78.81
2019-03-29T21:43:24.169Z,78.79
2019-03-29T21:45:53.787Z,78.85
2019-03-29T21:48:28.918Z,79.12
2019-03-29T21:50:55.444Z,79.39
2019-03-29T21:53:25.029Z,79.55
2019-03-29T21:55:54.514Z,79.33
2019-03-29T21:58:24.040Z,79.57
2019-03-29T22:00:53.543Z,79.34
2019-03-29T22:03:23.299Z,79.56
2019-03-29T22:05:52.939Z,79.41
2019-03-29T22:08:22.448Z,79.73
2019-03-29T22:10:52.026Z,79.98
2019-03-29T22:13:21.521Z,80.09
2019-03-29T22:15:51.014Z,80.02
2019-03-29T22:18:20.303Z,80.05
2019-03-29T22:20:50.682Z,80.00
2019-03-29T22:23:20.213Z,80.04
2019-03-29T22:25:49.711Z,80.10
2019-03-29T22:28:19.212Z,80.02
2019-03-29T22:30:48.496Z,79.93
2019-03-29T22:33:17.994Z,80.02
2019-03-29T22:35:47.326Z,80.11
2019-03-29T22:38:16.832Z,80.20
2019-03-29T22:40:48.802Z,80.43
2019-03-29T22:43:18.359Z,80.23
2019-03-29T22:45:47.668Z,80.71
2019-03-29T22:48:17.243Z,80.43
2019-03-29T22:50:47.272Z,80.47
2019-03-29T22:53:16.808Z,80.23
2019-03-29T22:55:46.063Z,80.21
2019-03-29T22:58:15.547Z,80.46
2019-03-29T23:00:48.242Z,80.67
2019-03-29T23:03:21.235Z,80.75
2019-03-29T23:05:50.760Z,80.74
2019-03-29T23:08:20.098Z,81.00
2019-03-29T23:10:49.632Z,80.86
2019-03-29T23:13:19.129Z,80.81
2019-03-29T23:15:48.615Z,80.70
2019-03-29T23:18:17.946Z,80.97
2019-03-29T23:20:47.862Z,80.96
2019-03-29T23:23:17.179Z,81.34
2019-03-29T23:25:47.398Z,81.43
2019-03-29T23:28:16.676Z,81.03
2019-03-29T23:30:46.247Z,81.13
2019-03-29T23:33:15.725Z,81.26
2019-03-29T23:35:45.322Z,81.11
2019-03-29T23:38:15.062Z,81.24
2019-03-29T23:40:44.611Z,81.41
2019-03-29T23:43:14.136Z,81.11
2019-03-29T23:45:43.393Z,80.89
2019-03-29T23:48:12.770Z,80.91
2019-03-29T23:50:42.343Z,81.11
2019-03-29T23:53:11.649Z,81.63
2019-03-29T23:55:41.248Z,81.57
2019-03-29T23:58:10.830Z,81.48
